sensor_id;sensor_type;location;lat;lon;timestamp;P1;durP1;ratioP1;P2;durP2;ratioP2
67768;SDS011;54569;52.018;5.584;2023-07-09T00:00:48;15.48;;;12.05;;
67768;SDS011;54569;52.018;5.584;2023-07-09T00:03:14;16.08;;;12.52;;
67768;SDS011;54569;52.018;5.584;2023-07-09T00:05:40;13.75;;;12.35;;
67768;SDS011;54569;52.018;5.584;2023-07-09T00:08:12;16.23;;;11.77;;
67768;SDS011;54569;52.018;5.584;2023-07-09T00:11:01;14.82;;;11.60;;
67768;SDS011;54569;52.018;5.584;2023-07-09T00:13:28;14.02;;;12.23;;
67768;SDS011;54569;52.018;5.584;2023-07-09T00:15:57;14.07;;;10.93;;
67768;SDS011;54569;52.018;5.584;2023-07-09T00:18:26;14.20;;;11.15;;
67768;SDS011;54569;52.018;5.584;2023-07-09T00:20:52;15.90;;;11.45;;
67768;SDS011;54569;52.018;5.584;2023-07-09T00:23:17;11.65;;;10.45;;
67768;SDS011;54569;52.018;5.584;2023-07-09T00:25:45;13.02;;;11.70;;
67768;SDS011;54569;52.018;5.584;2023-07-09T00:28:16;13.00;;;11.65;;
67768;SDS011;54569;52.018;5.584;2023-07-09T00:30:43;13.98;;;11.93;;
67768;SDS011;54569;52.018;5.584;2023-07-09T00:33:10;13.18;;;11.70;;
67768;SDS011;54569;52.018;5.584;2023-07-09T00:35:40;14.20;;;11.30;;
67768;SDS011;54569;52.018;5.584;2023-07-09T00:38:17;13.82;;;12.00;;
67768;SDS011;54569;52.018;5.584;2023-07-09T00:41:12;16.00;;;11.05;;
67768;SDS011;54569;52.018;5.584;2023-07-09T00:43:43;10.25;;;9.25;;
67768;SDS011;54569;52.018;5.584;2023-07-09T00:48:45;11.68;;;10.48;;
67768;SDS011;54569;52.018;5.584;2023-07-09T00:51:23;14.23;;;10.52;;
67768;SDS011;54569;52.018;5.584;2023-07-09T00:53:52;14.32;;;11.02;;
67768;SDS011;54569;52.018;5.584;2023-07-09T00:56:29;11.93;;;10.40;;
67768;SDS011;54569;52.018;5.584;2023-07-09T00:59:04;12.37;;;11.10;;
67768;SDS011;54569;52.018;5.584;2023-07-09T01:01:36;11.90;;;10.70;;
67768;SDS011;54569;52.018;5.584;2023-07-09T01:04:06;14.10;;;11.98;;
67768;SDS011;54569;52.018;5.584;2023-07-09T01:06:35;15.70;;;11.50;;
67768;SDS011;54569;52.018;5.584;2023-07-09T01:09:05;15.75;;;10.50;;
67768;SDS011;54569;52.018;5.584;2023-07-09T01:11:32;14.40;;;10.88;;
67768;SDS011;54569;52.018;5.584;2023-07-09T01:14:03;15.00;;;11.40;;
67768;SDS011;54569;52.018;5.584;2023-07-09T01:16:32;12.73;;;11.52;;
67768;SDS011;54569;52.018;5.584;2023-07-09T01:19:02;13.68;;;11.02;;
67768;SDS011;54569;52.018;5.584;2023-07-09T01:21:29;12.82;;;11.15;;
67768;SDS011;54569;52.018;5.584;2023-07-09T01:23:56;14.30;;;11.88;;
67768;SDS011;54569;52.018;5.584;2023-07-09T01:26:23;14.48;;;12.30;;
67768;SDS011;54569;52.018;5.584;2023-07-09T01:28:54;14.10;;;12.57;;
67768;SDS011;54569;52.018;5.584;2023-07-09T01:31:22;16.08;;;12.52;;
67768;SDS011;54569;52.018;5.584;2023-07-09T01:33:48;14.40;;;12.80;;
67768;SDS011;54569;52.018;5.584;2023-07-09T01:36:17;13.88;;;12.43;;
67768;SDS011;54569;52.018;5.584;2023-07-09T01:38:48;14.95;;;12.23;;
67768;SDS011;54569;52.018;5.584;2023-07-09T01:41:15;12.82;;;11.07;;
67768;SDS011;54569;52.018;5.584;2023-07-09T01:43:43;12.70;;;10.80;;
67768;SDS011;54569;52.018;5.584;2023-07-09T01:46:10;13.55;;;11.25;;
67768;SDS011;54569;52.018;5.584;2023-07-09T01:48:38;14.10;;;10.82;;
67768;SDS011;54569;52.018;5.584;2023-07-09T01:51:09;14.00;;;11.13;;
67768;SDS011;54569;52.018;5.584;2023-07-09T01:53:36;13.40;;;10.75;;
67768;SDS011;54569;52.018;5.584;2023-07-09T01:56:03;14.40;;;11.05;;
67768;SDS011;54569;52.018;5.584;2023-07-09T01:58:29;12.48;;;11.20;;
67768;SDS011;54569;52.018;5.584;2023-07-09T02:00:57;13.02;;;11.65;;
67768;SDS011;54569;52.018;5.584;2023-07-09T02:03:23;12.57;;;11.27;;
67768;SDS011;54569;52.018;5.584;2023-07-09T02:05:52;13.60;;;12.20;;
67768;SDS011;54569;52.018;5.584;2023-07-09T02:08:20;13.90;;;12.55;;
67768;SDS011;54569;52.018;5.584;2023-07-09T02:10:49;13.38;;;11.82;;
67768;SDS011;54569;52.018;5.584;2023-07-09T02:13:16;14.90;;;11.25;;
67768;SDS011;54569;52.018;5.584;2023-07-09T02:15:43;13.95;;;12.02;;
67768;SDS011;54569;52.018;5.584;2023-07-09T02:18:10;13.68;;;12.18;;
67768;SDS011;54569;52.018;5.584;2023-07-09T02:20:36;16.58;;;12.68;;
67768;SDS011;54569;52.018;5.584;2023-07-09T02:23:02;14.70;;;13.18;;
67768;SDS011;54569;52.018;5.584;2023-07-09T02:25:29;16.88;;;14.35;;
67768;SDS011;54569;52.018;5.584;2023-07-09T02:27:55;14.95;;;13.45;;
67768;SDS011;54569;52.018;5.584;2023-07-09T02:30:21;18.10;;;14.50;;
67768;SDS011;54569;52.018;5.584;2023-07-09T02:32:46;19.50;;;16.05;;
67768;SDS011;54569;52.018;5.584;2023-07-09T02:35:12;19.52;;;16.08;;
67768;SDS011;54569;52.018;5.584;2023-07-09T02:37:38;18.10;;;16.20;;
67768;SDS011;54569;52.018;5.584;2023-07-09T02:40:04;18.67;;;15.77;;
67768;SDS011;54569;52.018;5.584;2023-07-09T02:42:30;19.60;;;16.63;;
67768;SDS011;54569;52.018;5.584;2023-07-09T02:44:57;18.95;;;15.85;;
67768;SDS011;54569;52.018;5.584;2023-07-09T02:47:25;17.20;;;15.07;;
67768;SDS011;54569;52.018;5.584;2023-07-09T02:49:52;19.25;;;17.25;;
67768;SDS011;54569;52.018;5.584;2023-07-09T02:52:18;18.92;;;16.45;;
67768;SDS011;54569;52.018;5.584;2023-07-09T02:54:44;22.52;;;16.15;;
67768;SDS011;54569;52.018;5.584;2023-07-09T02:57:09;18.45;;;16.50;;
67768;SDS011;54569;52.018;5.584;2023-07-09T02:59:35;19.98;;;16.80;;
67768;SDS011;54569;52.018;5.584;2023-07-09T03:02:02;19.38;;;16.88;;
67768;SDS011;54569;52.018;5.584;2023-07-09T03:04:28;19.90;;;16.63;;
67768;SDS011;54569;52.018;5.584;2023-07-09T03:06:56;17.40;;;15.65;;
67768;SDS011;54569;52.018;5.584;2023-07-09T03:09:22;21.77;;;16.48;;
67768;SDS011;54569;52.018;5.584;2023-07-09T03:11:48;19.63;;;16.05;;
67768;SDS011;54569;52.018;5.584;2023-07-09T03:14:14;18.30;;;15.85;;
67768;SDS011;54569;52.018;5.584;2023-07-09T03:16:41;20.92;;;15.43;;
67768;SDS011;54569;52.018;5.584;2023-07-09T03:19:06;17.63;;;15.85;;
67768;SDS011;54569;52.018;5.584;2023-07-09T03:21:32;18.48;;;16.02;;
67768;SDS011;54569;52.018;5.584;2023-07-09T03:23:58;16.23;;;14.60;;
67768;SDS011;54569;52.018;5.584;2023-07-09T03:26:24;17.75;;;14.50;;
67768;SDS011;54569;52.018;5.584;2023-07-09T03:28:53;18.33;;;15.05;;
67768;SDS011;54569;52.018;5.584;2023-07-09T03:31:19;16.75;;;14.43;;
67768;SDS011;54569;52.018;5.584;2023-07-09T03:33:46;16.45;;;14.68;;
67768;SDS011;54569;52.018;5.584;2023-07-09T03:36:13;15.85;;;13.63;;
67768;SDS011;54569;52.018;5.584;2023-07-09T03:38:39;16.30;;;13.98;;
67768;SDS011;54569;52.018;5.584;2023-07-09T03:41:05;16.23;;;13.40;;
67768;SDS011;54569;52.018;5.584;2023-07-09T03:43:31;14.88;;;12.80;;
67768;SDS011;54569;52.018;5.584;2023-07-09T03:45:57;14.27;;;12.52;;
67768;SDS011;54569;52.018;5.584;2023-07-09T03:48:23;15.35;;;12.90;;
67768;SDS011;54569;52.018;5.584;2023-07-09T03:50:49;13.18;;;11.88;;
67768;SDS011;54569;52.018;5.584;2023-07-09T03:53:15;15.15;;;12.20;;
67768;SDS011;54569;52.018;5.584;2023-07-09T03:55:41;13.95;;;12.40;;
67768;SDS011;54569;52.018;5.584;2023-07-09T03:58:08;16.95;;;12.82;;
67768;SDS011;54569;52.018;5.584;2023-07-09T04:00:34;13.10;;;11.80;;
67768;SDS011;54569;52.018;5.584;2023-07-09T04:03:00;13.45;;;12.05;;
67768;SDS011;54569;52.018;5.584;2023-07-09T04:05:26;14.77;;;11.65;;
67768;SDS011;54569;52.018;5.584;2023-07-09T04:07:53;14.82;;;11.90;;
67768;SDS011;54569;52.018;5.584;2023-07-09T04:10:19;13.55;;;12.20;;
67768;SDS011;54569;52.018;5.584;2023-07-09T04:12:44;14.02;;;12.73;;
67768;SDS011;54569;52.018;5.584;2023-07-09T04:15:10;12.88;;;11.35;;
67768;SDS011;54569;52.018;5.584;2023-07-09T04:17:38;12.90;;;11.57;;
67768;SDS011;54569;52.018;5.584;2023-07-09T04:20:05;14.43;;;11.98;;
67768;SDS011;54569;52.018;5.584;2023-07-09T04:22:32;13.38;;;11.98;;
67768;SDS011;54569;52.018;5.584;2023-07-09T04:25:00;13.98;;;11.65;;
67768;SDS011;54569;52.018;5.584;2023-07-09T04:27:27;14.13;;;12.70;;
67768;SDS011;54569;52.018;5.584;2023-07-09T04:29:53;14.55;;;11.95;;
67768;SDS011;54569;52.018;5.584;2023-07-09T04:32:20;13.63;;;12.20;;
67768;SDS011;54569;52.018;5.584;2023-07-09T04:34:46;16.35;;;13.25;;
67768;SDS011;54569;52.018;5.584;2023-07-09T04:37:13;13.25;;;11.88;;
67768;SDS011;54569;52.018;5.584;2023-07-09T04:39:39;14.63;;;13.00;;
67768;SDS011;54569;52.018;5.584;2023-07-09T04:42:05;15.13;;;13.57;;
67768;SDS011;54569;52.018;5.584;2023-07-09T04:44:35;17.70;;;14.15;;
67768;SDS011;54569;52.018;5.584;2023-07-09T04:47:01;14.88;;;13.10;;
67768;SDS011;54569;52.018;5.584;2023-07-09T04:49:27;16.55;;;13.60;;
67768;SDS011;54569;52.018;5.584;2023-07-09T04:51:53;14.93;;;12.93;;
67768;SDS011;54569;52.018;5.584;2023-07-09T04:54:21;14.88;;;12.88;;
67768;SDS011;54569;52.018;5.584;2023-07-09T04:56:50;15.23;;;12.80;;
67768;SDS011;54569;52.018;5.584;2023-07-09T04:59:16;16.08;;;13.10;;
67768;SDS011;54569;52.018;5.584;2023-07-09T05:01:41;14.60;;;12.85;;
67768;SDS011;54569;52.018;5.584;2023-07-09T05:04:07;14.93;;;13.35;;
67768;SDS011;54569;52.018;5.584;2023-07-09T05:06:33;16.88;;;14.82;;
67768;SDS011;54569;52.018;5.584;2023-07-09T05:08:59;16.02;;;13.52;;
67768;SDS011;54569;52.018;5.584;2023-07-09T05:11:25;16.58;;;14.23;;
67768;SDS011;54569;52.018;5.584;2023-07-09T05:13:51;17.65;;;14.80;;
67768;SDS011;54569;52.018;5.584;2023-07-09T05:16:17;19.23;;;16.08;;
67768;SDS011;54569;52.018;5.584;2023-07-09T05:18:44;18.20;;;15.50;;
67768;SDS011;54569;52.018;5.584;2023-07-09T05:21:11;17.02;;;15.32;;
67768;SDS011;54569;52.018;5.584;2023-07-09T05:23:37;17.98;;;15.18;;
67768;SDS011;54569;52.018;5.584;2023-07-09T05:26:03;18.88;;;16.17;;
67768;SDS011;54569;52.018;5.584;2023-07-09T05:28:29;19.17;;;16.95;;
67768;SDS011;54569;52.018;5.584;2023-07-09T05:30:58;19.83;;;15.95;;
67768;SDS011;54569;52.018;5.584;2023-07-09T05:33:24;20.10;;;17.35;;
67768;SDS011;54569;52.018;5.584;2023-07-09T05:35:50;20.98;;;17.05;;
67768;SDS011;54569;52.018;5.584;2023-07-09T05:38:15;19.13;;;16.92;;
67768;SDS011;54569;52.018;5.584;2023-07-09T05:40:41;19.20;;;17.02;;
67768;SDS011;54569;52.018;5.584;2023-07-09T05:43:08;19.08;;;17.08;;
67768;SDS011;54569;52.018;5.584;2023-07-09T05:45:34;19.10;;;17.10;;
67768;SDS011;54569;52.018;5.584;2023-07-09T05:48:00;24.48;;;18.48;;
67768;SDS011;54569;52.018;5.584;2023-07-09T05:50:26;23.20;;;19.33;;
67768;SDS011;54569;52.018;5.584;2023-07-09T05:52:53;22.63;;;19.90;;
67768;SDS011;54569;52.018;5.584;2023-07-09T05:55:19;23.98;;;20.17;;
67768;SDS011;54569;52.018;5.584;2023-07-09T05:57:45;21.90;;;19.38;;
67768;SDS011;54569;52.018;5.584;2023-07-09T06:00:11;25.45;;;20.95;;
67768;SDS011;54569;52.018;5.584;2023-07-09T06:02:41;24.35;;;21.77;;
67768;SDS011;54569;52.018;5.584;2023-07-09T06:05:07;23.50;;;21.02;;
67768;SDS011;54569;52.018;5.584;2023-07-09T06:07:36;24.58;;;21.45;;
67768;SDS011;54569;52.018;5.584;2023-07-09T06:10:03;23.38;;;20.98;;
67768;SDS011;54569;52.018;5.584;2023-07-09T06:12:33;26.13;;;21.60;;
67768;SDS011;54569;52.018;5.584;2023-07-09T06:15:02;24.85;;;22.27;;
67768;SDS011;54569;52.018;5.584;2023-07-09T06:17:28;27.65;;;23.35;;
67768;SDS011;54569;52.018;5.584;2023-07-09T06:19:54;26.13;;;22.45;;
67768;SDS011;54569;52.018;5.584;2023-07-09T06:22:19;25.20;;;22.55;;
67768;SDS011;54569;52.018;5.584;2023-07-09T06:24:45;31.02;;;23.00;;
67768;SDS011;54569;52.018;5.584;2023-07-09T06:27:11;25.73;;;22.90;;
67768;SDS011;54569;52.018;5.584;2023-07-09T06:29:37;27.33;;;23.27;;
67768;SDS011;54569;52.018;5.584;2023-07-09T06:32:03;25.30;;;22.60;;
67768;SDS011;54569;52.018;5.584;2023-07-09T06:34:29;26.25;;;23.23;;
67768;SDS011;54569;52.018;5.584;2023-07-09T06:36:56;26.65;;;23.08;;
67768;SDS011;54569;52.018;5.584;2023-07-09T06:39:22;27.90;;;22.02;;
67768;SDS011;54569;52.018;5.584;2023-07-09T06:41:48;29.23;;;22.65;;
67768;SDS011;54569;52.018;5.584;2023-07-09T06:44:52;24.38;;;21.75;;
67768;SDS011;54569;52.018;5.584;2023-07-09T06:47:18;23.60;;;20.48;;
67768;SDS011;54569;52.018;5.584;2023-07-09T06:49:44;23.83;;;19.90;;
67768;SDS011;54569;52.018;5.584;2023-07-09T06:52:09;23.27;;;20.27;;
67768;SDS011;54569;52.018;5.584;2023-07-09T06:54:35;22.05;;;19.70;;
67768;SDS011;54569;52.018;5.584;2023-07-09T06:57:01;20.83;;;18.63;;
67768;SDS011;54569;52.018;5.584;2023-07-09T06:59:26;23.08;;;19.40;;
67768;SDS011;54569;52.018;5.584;2023-07-09T07:01:52;21.35;;;19.15;;
67768;SDS011;54569;52.018;5.584;2023-07-09T07:04:18;21.85;;;18.48;;
67768;SDS011;54569;52.018;5.584;2023-07-09T07:06:44;19.85;;;17.83;;
67768;SDS011;54569;52.018;5.584;2023-07-09T07:09:09;20.13;;;18.02;;
67768;SDS011;54569;52.018;5.584;2023-07-09T07:11:35;23.33;;;18.30;;
67768;SDS011;54569;52.018;5.584;2023-07-09T07:14:01;17.58;;;15.05;;
67768;SDS011;54569;52.018;5.584;2023-07-09T07:16:27;16.77;;;15.18;;
67768;SDS011;54569;52.018;5.584;2023-07-09T07:18:52;17.50;;;15.60;;
67768;SDS011;54569;52.018;5.584;2023-07-09T07:21:18;17.45;;;15.60;;
67768;SDS011;54569;52.018;5.584;2023-07-09T07:23:44;17.92;;;15.18;;
67768;SDS011;54569;52.018;5.584;2023-07-09T07:26:09;17.20;;;14.18;;
67768;SDS011;54569;52.018;5.584;2023-07-09T07:28:35;15.00;;;12.82;;
67768;SDS011;54569;52.018;5.584;2023-07-09T07:31:02;15.93;;;13.55;;
67768;SDS011;54569;52.018;5.584;2023-07-09T07:33:29;17.30;;;13.75;;
67768;SDS011;54569;52.018;5.584;2023-07-09T07:35:55;18.08;;;13.05;;
67768;SDS011;54569;52.018;5.584;2023-07-09T07:38:21;16.08;;;14.38;;
67768;SDS011;54569;52.018;5.584;2023-07-09T07:40:46;16.20;;;14.48;;
67768;SDS011;54569;52.018;5.584;2023-07-09T07:43:12;14.07;;;12.60;;
67768;SDS011;54569;52.018;5.584;2023-07-09T07:45:41;18.52;;;14.20;;
67768;SDS011;54569;52.018;5.584;2023-07-09T07:48:07;14.82;;;12.02;;
67768;SDS011;54569;52.018;5.584;2023-07-09T07:50:33;14.60;;;11.70;;
67768;SDS011;54569;52.018;5.584;2023-07-09T07:52:59;13.15;;;11.50;;
67768;SDS011;54569;52.018;5.584;2023-07-09T07:55:25;11.98;;;10.57;;
67768;SDS011;54569;52.018;5.584;2023-07-09T07:57:51;12.98;;;10.98;;
67768;SDS011;54569;52.018;5.584;2023-07-09T08:00:16;12.02;;;9.88;;
67768;SDS011;54569;52.018;5.584;2023-07-09T08:02:45;11.43;;;10.10;;
67768;SDS011;54569;52.018;5.584;2023-07-09T08:05:11;11.52;;;10.00;;
67768;SDS011;54569;52.018;5.584;2023-07-09T08:07:37;15.05;;;10.15;;
67768;SDS011;54569;52.018;5.584;2023-07-09T08:10:02;14.35;;;11.68;;
67768;SDS011;54569;52.018;5.584;2023-07-09T08:12:28;13.52;;;11.38;;
67768;SDS011;54569;52.018;5.584;2023-07-09T08:14:54;12.75;;;10.65;;
67768;SDS011;54569;52.018;5.584;2023-07-09T08:17:20;11.02;;;9.55;;
67768;SDS011;54569;52.018;5.584;2023-07-09T08:19:46;16.02;;;9.82;;
67768;SDS011;54569;52.018;5.584;2023-07-09T08:22:14;9.68;;;8.77;;
67768;SDS011;54569;52.018;5.584;2023-07-09T08:24:40;10.73;;;9.63;;
67768;SDS011;54569;52.018;5.584;2023-07-09T08:27:07;14.15;;;10.05;;
67768;SDS011;54569;52.018;5.584;2023-07-09T08:29:33;11.70;;;9.95;;
67768;SDS011;54569;52.018;5.584;2023-07-09T08:32:00;12.52;;;10.23;;
67768;SDS011;54569;52.018;5.584;2023-07-09T08:34:25;11.23;;;9.77;;
67768;SDS011;54569;52.018;5.584;2023-07-09T08:36:51;12.60;;;10.98;;
67768;SDS011;54569;52.018;5.584;2023-07-09T08:39:17;13.13;;;10.48;;
67768;SDS011;54569;52.018;5.584;2023-07-09T08:41:44;11.85;;;10.65;;
67768;SDS011;54569;52.018;5.584;2023-07-09T08:44:36;12.18;;;10.10;;
67768;SDS011;54569;52.018;5.584;2023-07-09T08:49:54;13.73;;;10.57;;
67768;SDS011;54569;52.018;5.584;2023-07-09T08:52:30;11.13;;;9.60;;
67768;SDS011;54569;52.018;5.584;2023-07-09T08:55:03;11.48;;;10.02;;
67768;SDS011;54569;52.018;5.584;2023-07-09T08:58:04;14.93;;;10.30;;
67768;SDS011;54569;52.018;5.584;2023-07-09T09:00:48;11.70;;;9.95;;
67768;SDS011;54569;52.018;5.584;2023-07-09T09:03:23;12.18;;;9.82;;
67768;SDS011;54569;52.018;5.584;2023-07-09T09:05:55;10.93;;;8.70;;
67768;SDS011;54569;52.018;5.584;2023-07-09T09:10:57;12.95;;;8.95;;
67768;SDS011;54569;52.018;5.584;2023-07-09T09:13:52;11.23;;;9.43;;
67768;SDS011;54569;52.018;5.584;2023-07-09T09:16:31;11.52;;;9.30;;
67768;SDS011;54569;52.018;5.584;2023-07-09T09:19:01;13.00;;;8.90;;
67768;SDS011;54569;52.018;5.584;2023-07-09T09:24:09;11.32;;;8.75;;
67768;SDS011;54569;52.018;5.584;2023-07-09T09:26:51;10.43;;;8.95;;
67768;SDS011;54569;52.018;5.584;2023-07-09T09:29:23;11.25;;;8.80;;
67768;SDS011;54569;52.018;5.584;2023-07-09T09:31:50;10.63;;;8.93;;
67768;SDS011;54569;52.018;5.584;2023-07-09T09:34:25;9.50;;;8.52;;
67768;SDS011;54569;52.018;5.584;2023-07-09T09:36:54;14.02;;;9.52;;
67768;SDS011;54569;52.018;5.584;2023-07-09T09:39:21;9.55;;;8.32;;
67768;SDS011;54569;52.018;5.584;2023-07-09T09:41:51;11.40;;;8.30;;
67768;SDS011;54569;52.018;5.584;2023-07-09T09:44:30;9.35;;;8.45;;
67768;SDS011;54569;52.018;5.584;2023-07-09T09:46:57;12.73;;;8.52;;
67768;SDS011;54569;52.018;5.584;2023-07-09T09:49:23;11.75;;;8.30;;
67768;SDS011;54569;52.018;5.584;2023-07-09T09:51:49;10.20;;;8.60;;
67768;SDS011;54569;52.018;5.584;2023-07-09T09:54:24;10.85;;;8.52;;
67768;SDS011;54569;52.018;5.584;2023-07-09T09:56:55;10.75;;;8.38;;
67768;SDS011;54569;52.018;5.584;2023-07-09T09:59:25;11.02;;;8.55;;
67768;SDS011;54569;52.018;5.584;2023-07-09T10:02:12;9.07;;;7.88;;
67768;SDS011;54569;52.018;5.584;2023-07-09T10:04:45;10.18;;;8.73;;
67768;SDS011;54569;52.018;5.584;2023-07-09T10:07:14;11.50;;;8.02;;
67768;SDS011;54569;52.018;5.584;2023-07-09T10:09:59;9.05;;;7.75;;
67768;SDS011;54569;52.018;5.584;2023-07-09T10:12:49;8.10;;;7.35;;
67768;SDS011;54569;52.018;5.584;2023-07-09T10:21:06;11.00;;;6.85;;
67768;SDS011;54569;52.018;5.584;2023-07-09T10:23:59;8.15;;;7.07;;
67768;SDS011;54569;52.018;5.584;2023-07-09T10:26:44;9.05;;;7.15;;
67768;SDS011;54569;52.018;5.584;2023-07-09T10:39:38;7.40;;;5.70;;
67768;SDS011;54569;52.018;5.584;2023-07-09T10:42:11;6.25;;;5.53;;
67768;SDS011;54569;52.018;5.584;2023-07-09T10:44:43;6.85;;;5.65;;
67768;SDS011;54569;52.018;5.584;2023-07-09T10:47:18;6.75;;;6.05;;
67768;SDS011;54569;52.018;5.584;2023-07-09T10:50:29;8.15;;;5.47;;
67768;SDS011;54569;52.018;5.584;2023-07-09T10:53:00;8.85;;;6.35;;
67768;SDS011;54569;52.018;5.584;2023-07-09T10:55:32;8.35;;;5.80;;
67768;SDS011;54569;52.018;5.584;2023-07-09T10:58:05;10.30;;;6.28;;
67768;SDS011;54569;52.018;5.584;2023-07-09T11:00:44;7.22;;;6.03;;
67768;SDS011;54569;52.018;5.584;2023-07-09T11:03:22;6.95;;;5.57;;
67768;SDS011;54569;52.018;5.584;2023-07-09T11:05:58;7.38;;;5.55;;
67768;SDS011;54569;52.018;5.584;2023-07-09T11:08:30;7.70;;;5.75;;
67768;SDS011;54569;52.018;5.584;2023-07-09T11:11:04;5.97;;;5.20;;
67768;SDS011;54569;52.018;5.584;2023-07-09T11:16:05;7.57;;;5.70;;
67768;SDS011;54569;52.018;5.584;2023-07-09T11:18:33;7.18;;;5.20;;
67768;SDS011;54569;52.018;5.584;2023-07-09T11:29:23;8.00;;;5.38;;
67768;SDS011;54569;52.018;5.584;2023-07-09T11:31:48;5.82;;;5.05;;
67768;SDS011;54569;52.018;5.584;2023-07-09T11:34:18;7.03;;;4.95;;
67768;SDS011;54569;52.018;5.584;2023-07-09T11:36:55;7.40;;;5.18;;
67768;SDS011;54569;52.018;5.584;2023-07-09T11:39:27;8.18;;;5.22;;
67768;SDS011;54569;52.018;5.584;2023-07-09T11:41:54;7.53;;;4.85;;
67768;SDS011;54569;52.018;5.584;2023-07-09T11:44:25;6.75;;;4.97;;
67768;SDS011;54569;52.018;5.584;2023-07-09T11:47:42;6.90;;;5.00;;
67768;SDS011;54569;52.018;5.584;2023-07-09T11:52:37;5.65;;;5.05;;
67768;SDS011;54569;52.018;5.584;2023-07-09T11:57:55;7.47;;;5.32;;
67768;SDS011;54569;52.018;5.584;2023-07-09T12:00:25;6.28;;;5.57;;
67768;SDS011;54569;52.018;5.584;2023-07-09T12:02:54;6.60;;;5.20;;
67768;SDS011;54569;52.018;5.584;2023-07-09T12:05:24;6.18;;;5.40;;
67768;SDS011;54569;52.018;5.584;2023-07-09T12:07:53;8.23;;;5.35;;
67768;SDS011;54569;52.018;5.584;2023-07-09T12:10:22;8.00;;;5.32;;
67768;SDS011;54569;52.018;5.584;2023-07-09T12:12:57;6.72;;;5.82;;
67768;SDS011;54569;52.018;5.584;2023-07-09T12:15:24;6.82;;;5.88;;
67768;SDS011;54569;52.018;5.584;2023-07-09T12:18:02;6.47;;;5.45;;
67768;SDS011;54569;52.018;5.584;2023-07-09T12:20:35;6.93;;;6.22;;
67768;SDS011;54569;52.018;5.584;2023-07-09T12:25:49;8.68;;;5.75;;
67768;SDS011;54569;52.018;5.584;2023-07-09T12:28:17;8.43;;;5.20;;
67768;SDS011;54569;52.018;5.584;2023-07-09T12:30:48;6.00;;;5.38;;
67768;SDS011;54569;52.018;5.584;2023-07-09T12:33:18;8.57;;;5.80;;
67768;SDS011;54569;52.018;5.584;2023-07-09T12:35:46;6.55;;;5.65;;
67768;SDS011;54569;52.018;5.584;2023-07-09T12:38:21;7.13;;;6.07;;
67768;SDS011;54569;52.018;5.584;2023-07-09T12:40:49;11.55;;;6.18;;
67768;SDS011;54569;52.018;5.584;2023-07-09T12:43:29;8.75;;;5.95;;
67768;SDS011;54569;52.018;5.584;2023-07-09T12:45:57;8.80;;;5.70;;
67768;SDS011;54569;52.018;5.584;2023-07-09T12:48:28;9.98;;;6.30;;
67768;SDS011;54569;52.018;5.584;2023-07-09T12:50:56;6.85;;;5.65;;
67768;SDS011;54569;52.018;5.584;2023-07-09T12:53:23;7.72;;;5.47;;
67768;SDS011;54569;52.018;5.584;2023-07-09T12:55:57;6.40;;;5.82;;
67768;SDS011;54569;52.018;5.584;2023-07-09T12:58:32;9.20;;;6.38;;
67768;SDS011;54569;52.018;5.584;2023-07-09T13:01:13;6.75;;;6.05;;
67768;SDS011;54569;52.018;5.584;2023-07-09T13:03:41;9.75;;;6.03;;
67768;SDS011;54569;52.018;5.584;2023-07-09T13:06:26;7.63;;;6.32;;
67768;SDS011;54569;52.018;5.584;2023-07-09T13:08:55;9.93;;;6.40;;
67768;SDS011;54569;52.018;5.584;2023-07-09T13:11:23;8.98;;;6.15;;
67768;SDS011;54569;52.018;5.584;2023-07-09T13:13:56;8.18;;;6.85;;
67768;SDS011;54569;52.018;5.584;2023-07-09T13:16:23;7.78;;;6.97;;
67768;SDS011;54569;52.018;5.584;2023-07-09T13:18:49;9.10;;;7.43;;
67768;SDS011;54569;52.018;5.584;2023-07-09T13:21:19;8.13;;;7.03;;
67768;SDS011;54569;52.018;5.584;2023-07-09T13:23:45;8.02;;;7.22;;
67768;SDS011;54569;52.018;5.584;2023-07-09T13:26:12;9.02;;;7.60;;
67768;SDS011;54569;52.018;5.584;2023-07-09T13:28:38;10.02;;;6.93;;
67768;SDS011;54569;52.018;5.584;2023-07-09T13:33:36;8.35;;;7.00;;
67768;SDS011;54569;52.018;5.584;2023-07-09T13:36:02;8.77;;;7.00;;
67768;SDS011;54569;52.018;5.584;2023-07-09T13:38:28;8.70;;;6.65;;
67768;SDS011;54569;52.018;5.584;2023-07-09T13:40:55;9.93;;;6.50;;
67768;SDS011;54569;52.018;5.584;2023-07-09T13:43:29;7.95;;;5.70;;
67768;SDS011;54569;52.018;5.584;2023-07-09T13:45:57;8.20;;;5.60;;
67768;SDS011;54569;52.018;5.584;2023-07-09T13:48:24;7.82;;;5.38;;
67768;SDS011;54569;52.018;5.584;2023-07-09T13:50:51;8.18;;;5.40;;
67768;SDS011;54569;52.018;5.584;2023-07-09T13:53:23;11.20;;;6.57;;
67768;SDS011;54569;52.018;5.584;2023-07-09T13:55:51;10.48;;;6.55;;
67768;SDS011;54569;52.018;5.584;2023-07-09T13:58:18;10.50;;;7.22;;
67768;SDS011;54569;52.018;5.584;2023-07-09T14:00:46;9.18;;;7.85;;
67768;SDS011;54569;52.018;5.584;2023-07-09T14:03:18;9.15;;;8.25;;
67768;SDS011;54569;52.018;5.584;2023-07-09T14:05:47;11.57;;;8.30;;
67768;SDS011;54569;52.018;5.584;2023-07-09T14:08:13;9.07;;;8.02;;
67768;SDS011;54569;52.018;5.584;2023-07-09T14:10:39;9.52;;;8.07;;
67768;SDS011;54569;52.018;5.584;2023-07-09T14:13:05;9.98;;;7.72;;
67768;SDS011;54569;52.018;5.584;2023-07-09T14:15:39;8.77;;;8.05;;
67768;SDS011;54569;52.018;5.584;2023-07-09T14:18:05;8.45;;;7.05;;
67768;SDS011;54569;52.018;5.584;2023-07-09T14:20:38;9.02;;;7.45;;
67768;SDS011;54569;52.018;5.584;2023-07-09T14:23:04;8.15;;;7.35;;
67768;SDS011;54569;52.018;5.584;2023-07-09T14:25:30;7.50;;;6.45;;
67768;SDS011;54569;52.018;5.584;2023-07-09T14:27:56;7.53;;;6.88;;
67768;SDS011;54569;52.018;5.584;2023-07-09T14:30:22;7.72;;;6.30;;
67768;SDS011;54569;52.018;5.584;2023-07-09T14:32:50;7.43;;;6.72;;
67768;SDS011;54569;52.018;5.584;2023-07-09T14:35:24;7.30;;;6.13;;
67768;SDS011;54569;52.018;5.584;2023-07-09T14:37:51;6.75;;;6.13;;
67768;SDS011;54569;52.018;5.584;2023-07-09T14:40:18;7.05;;;5.30;;
67768;SDS011;54569;52.018;5.584;2023-07-09T14:42:46;5.78;;;5.07;;
67768;SDS011;54569;52.018;5.584;2023-07-09T14:45:22;5.95;;;4.30;;
67768;SDS011;54569;52.018;5.584;2023-07-09T14:47:50;23.83;;;5.10;;
67768;SDS011;54569;52.018;5.584;2023-07-09T14:50:19;18.88;;;5.70;;
67768;SDS011;54569;52.018;5.584;2023-07-09T14:52:47;16.17;;;4.97;;
67768;SDS011;54569;52.018;5.584;2023-07-09T14:55:14;11.73;;;4.88;;
67768;SDS011;54569;52.018;5.584;2023-07-09T14:57:41;6.63;;;4.43;;
67768;SDS011;54569;52.018;5.584;2023-07-09T15:00:11;9.10;;;4.50;;
67768;SDS011;54569;52.018;5.584;2023-07-09T15:02:42;5.93;;;4.05;;
67768;SDS011;54569;52.018;5.584;2023-07-09T15:05:11;4.28;;;3.40;;
67768;SDS011;54569;52.018;5.584;2023-07-09T15:07:42;8.00;;;3.97;;
67768;SDS011;54569;52.018;5.584;2023-07-09T15:10:17;5.35;;;3.72;;
67768;SDS011;54569;52.018;5.584;2023-07-09T15:12:47;7.78;;;3.88;;
67768;SDS011;54569;52.018;5.584;2023-07-09T15:15:22;6.03;;;3.72;;
67768;SDS011;54569;52.018;5.584;2023-07-09T15:17:51;8.98;;;4.57;;
67768;SDS011;54569;52.018;5.584;2023-07-09T15:20:19;5.18;;;4.30;;
67768;SDS011;54569;52.018;5.584;2023-07-09T15:22:48;7.80;;;4.45;;
67768;SDS011;54569;52.018;5.584;2023-07-09T15:25:16;7.07;;;4.55;;
67768;SDS011;54569;52.018;5.584;2023-07-09T15:27:45;7.90;;;4.18;;
67768;SDS011;54569;52.018;5.584;2023-07-09T15:30:16;7.25;;;4.60;;